createdAt,value
2022-07-29T00:01:19.134Z,21.16
2022-07-29T00:02:53.299Z,21.15
2022-07-29T00:04:26.717Z,21.12
2022-07-29T00:05:59.318Z,21.05
2022-07-29T00:07:34.146Z,20.97
2022-07-29T00:09:08.001Z,21.06
2022-07-29T00:10:41.297Z,21.08
2022-07-29T00:12:14.557Z,21.05
2022-07-29T00:13:54.811Z,20.97
2022-07-29T00:15:29.797Z,21.00
2022-07-29T00:17:02.049Z,20.97
2022-07-29T00:18:35.359Z,20.99
2022-07-29T00:20:10.146Z,20.99
2022-07-29T00:21:43.665Z,20.99
2022-07-29T00:23:17.002Z,20.96
2022-07-29T00:24:50.833Z,20.93
2022-07-29T00:26:24.197Z,20.86
2022-07-29T00:27:57.753Z,20.81
2022-07-29T00:29:33.906Z,20.74
2022-07-29T00:31:10.018Z,20.70
2022-07-29T00:32:43.558Z,20.67
2022-07-29T00:34:30.880Z,20.69
2022-07-29T00:36:04.403Z,20.70
2022-07-29T00:37:36.678Z,20.70
2022-07-29T00:39:09.889Z,20.68
2022-07-29T00:40:44.103Z,20.65
2022-07-29T00:42:17.792Z,20.63
2022-07-29T00:43:51.079Z,20.61
2022-07-29T00:45:24.606Z,20.57
2022-07-29T00:46:59.622Z,20.57
2022-07-29T00:48:32.870Z,20.49
2022-07-29T00:50:07.575Z,20.48
2022-07-29T00:51:41.831Z,20.32
2022-07-29T00:53:15.430Z,20.34
2022-07-29T00:54:48.809Z,20.31
2022-07-29T00:56:22.402Z,20.26
2022-07-29T00:57:57.251Z,20.26
2022-07-29T00:59:34.874Z,20.29
2022-07-29T01:01:08.718Z,20.30
2022-07-29T01:02:42.411Z,20.32
2022-07-29T01:04:16.224Z,20.29
2022-07-29T01:05:52.000Z,20.22
2022-07-29T01:07:25.702Z,20.14
2022-07-29T01:09:00.063Z,20.09
2022-07-29T01:10:34.241Z,20.12
2022-07-29T01:12:08.259Z,20.11
2022-07-29T01:13:42.472Z,20.12
2022-07-29T01:15:15.921Z,20.13
2022-07-29T01:16:54.247Z,20.10
2022-07-29T01:18:37.092Z,20.13
2022-07-29T01:20:18.873Z,20.12
2022-07-29T01:21:56.971Z,20.08
2022-07-29T01:23:50.545Z,20.07
2022-07-29T01:25:57.572Z,19.97
2022-07-29T01:27:43.936Z,19.88
2022-07-29T01:29:38.896Z,19.85
2022-07-29T01:31:24.986Z,19.83
2022-07-29T01:33:05.304Z,19.84
2022-07-29T01:34:44.659Z,19.80
2022-07-29T01:36:24.863Z,19.80
2022-07-29T01:38:03.342Z,19.81
2022-07-29T01:39:39.723Z,19.83
2022-07-29T01:41:17.351Z,19.85
2022-07-29T01:42:53.814Z,19.82
2022-07-29T01:44:35.220Z,19.74
2022-07-29T01:46:14.137Z,19.71
2022-07-29T01:47:52.946Z,19.71
2022-07-29T01:49:30.388Z,19.72
2022-07-29T01:51:07.995Z,19.71
2022-07-29T01:52:47.371Z,19.66
2022-07-29T01:54:26.014Z,19.66
2022-07-29T01:56:03.806Z,19.68
2022-07-29T01:57:40.662Z,19.71
2022-07-29T01:59:14.617Z,19.71
2022-07-29T02:00:52.139Z,19.69
2022-07-29T02:02:26.872Z,19.66
2022-07-29T02:04:04.467Z,19.65
2022-07-29T02:05:40.161Z,19.59
2022-07-29T02:07:18.049Z,19.63
2022-07-29T02:08:52.464Z,19.61
2022-07-29T02:10:31.645Z,19.62
2022-07-29T02:12:06.936Z,19.64
2022-07-29T02:13:42.305Z,19.56
2022-07-29T02:15:15.762Z,19.57
2022-07-29T02:16:54.563Z,19.54
2022-07-29T02:18:30.822Z,19.57
2022-07-29T02:20:06.116Z,19.58
2022-07-29T02:21:42.018Z,19.62
2022-07-29T02:23:20.882Z,19.64
2022-07-29T02:24:55.963Z,19.61
2022-07-29T02:26:30.286Z,19.59
2022-07-29T02:28:05.881Z,19.55
2022-07-29T02:29:41.883Z,19.53
2022-07-29T02:31:17.145Z,19.54
2022-07-29T02:32:53.571Z,19.53
2022-07-29T02:34:27.830Z,19.54
2022-07-29T02:36:02.355Z,19.54
2022-07-29T02:37:37.537Z,19.51
2022-07-29T02:39:12.298Z,19.48
2022-07-29T02:40:46.440Z,19.51
2022-07-29T02:42:21.081Z,19.50
2022-07-29T02:43:57.105Z,19.36
2022-07-29T02:45:31.525Z,19.38
2022-07-29T02:47:12.682Z,19.38
2022-07-29T02:48:51.898Z,19.33
2022-07-29T02:50:34.833Z,19.30
2022-07-29T02:52:14.706Z,19.24
2022-07-29T02:53:53.640Z,19.05
2022-07-29T02:55:31.932Z,19.11
2022-07-29T02:57:11.239Z,19.07
2022-07-29T02:58:51.799Z,19.10
2022-07-29T03:00:27.827Z,19.14
2022-07-29T03:02:02.736Z,19.17
2022-07-29T03:03:38.909Z,19.19
2022-07-29T03:05:21.844Z,19.16
2022-07-29T03:06:55.612Z,19.25
2022-07-29T03:08:28.864Z,19.17
2022-07-29T03:10:03.530Z,19.19
2022-07-29T03:11:42.170Z,19.20
2022-07-29T03:13:20.937Z,19.22
2022-07-29T03:14:55.335Z,19.19
2022-07-29T03:16:28.789Z,19.18
2022-07-29T03:18:02.731Z,19.19
2022-07-29T03:19:36.625Z,19.23
2022-07-29T03:21:11.641Z,19.25
2022-07-29T03:22:48.428Z,19.28
2022-07-29T03:24:32.950Z,19.24
2022-07-29T03:26:06.736Z,19.25
2022-07-29T03:27:39.380Z,19.24
2022-07-29T03:29:13.512Z,19.26
2022-07-29T03:30:47.476Z,19.30
2022-07-29T03:32:23.802Z,19.32
2022-07-29T03:33:58.537Z,19.35
2022-07-29T03:35:32.700Z,19.32
2022-07-29T03:37:08.170Z,19.38
2022-07-29T03:38:43.884Z,19.42
2022-07-29T03:40:21.971Z,19.42
2022-07-29T03:41:59.089Z,19.42
2022-07-29T03:43:34.398Z,19.42
2022-07-29T03:45:12.402Z,19.45
2022-07-29T03:46:47.810Z,19.48
2022-07-29T03:48:24.335Z,19.52
2022-07-29T03:50:04.205Z,19.60
2022-07-29T03:51:37.809Z,19.59
2022-07-29T03:53:13.251Z,19.73
2022-07-29T03:54:46.926Z,19.83
2022-07-29T03:56:23.891Z,19.92
2022-07-29T03:57:59.463Z,20.00
2022-07-29T03:59:35.203Z,20.10
2022-07-29T04:01:08.607Z,20.13
2022-07-29T04:02:42.192Z,20.19
2022-07-29T04:04:15.744Z,20.23
2022-07-29T04:06:00.535Z,20.28
2022-07-29T04:07:33.868Z,20.34
2022-07-29T04:09:09.827Z,20.38
2022-07-29T04:10:43.828Z,20.38
2022-07-29T04:12:17.109Z,20.34
2022-07-29T04:13:50.304Z,20.35
2022-07-29T04:15:23.718Z,20.39
2022-07-29T04:16:56.364Z,20.41
2022-07-29T04:18:29.670Z,20.46
2022-07-29T04:20:03.071Z,20.49
2022-07-29T04:21:39.941Z,20.57
2022-07-29T04:23:13.517Z,20.68
2022-07-29T04:24:47.262Z,20.67
2022-07-29T04:26:21.878Z,20.79
2022-07-29T04:28:04.434Z,20.84
2022-07-29T04:29:37.827Z,20.94
2022-07-29T04:31:30.762Z,20.98
2022-07-29T04:33:05.793Z,21.00
2022-07-29T04:34:39.296Z,21.00
2022-07-29T04:36:28.533Z,20.99
2022-07-29T04:38:03.925Z,21.01
2022-07-29T04:39:37.211Z,21.07
2022-07-29T04:41:11.905Z,21.13
2022-07-29T04:42:48.018Z,21.26
2022-07-29T04:44:28.638Z,21.55
2022-07-29T04:46:02.521Z,21.81
2022-07-29T04:47:35.917Z,22.10
2022-07-29T04:49:09.542Z,22.41
2022-07-29T04:50:42.563Z,22.66
2022-07-29T04:52:15.845Z,22.98
2022-07-29T04:53:49.191Z,23.18
2022-07-29T04:55:22.465Z,23.38
2022-07-29T04:56:56.253Z,23.61
2022-07-29T04:58:29.737Z,23.84
2022-07-29T05:00:03.270Z,24.12
2022-07-29T05:01:36.740Z,24.45
2022-07-29T05:03:10.221Z,24.69
2022-07-29T05:04:42.593Z,24.91
2022-07-29T05:06:15.969Z,25.11
2022-07-29T05:07:49.302Z,25.30
2022-07-29T05:09:22.847Z,25.52
2022-07-29T05:10:56.157Z,25.76
2022-07-29T05:12:29.824Z,25.88
2022-07-29T05:14:03.177Z,26.13
2022-07-29T05:15:37.844Z,26.36
2022-07-29T05:17:10.223Z,26.66
2022-07-29T05:18:43.501Z,26.84
2022-07-29T05:20:16.846Z,27.01
2022-07-29T05:21:50.283Z,27.22
2022-07-29T05:23:23.531Z,27.29
2022-07-29T05:24:56.750Z,27.33
2022-07-29T05:26:30.086Z,27.53
2022-07-29T05:28:05.510Z,27.71
2022-07-29T05:29:43.794Z,27.78
2022-07-29T05:31:18.863Z,27.98
2022-07-29T05:32:52.273Z,28.03
2022-07-29T05:34:26.174Z,28.09
2022-07-29T05:36:00.864Z,28.19
2022-07-29T05:37:35.300Z,28.35
2022-07-29T05:39:08.488Z,28.44
2022-07-29T05:40:42.294Z,28.51
2022-07-29T05:42:15.550Z,28.63
2022-07-29T05:43:50.211Z,28.73
2022-07-29T05:45:24.522Z,28.94
2022-07-29T05:46:58.075Z,28.92
2022-07-29T05:48:31.382Z,28.93
2022-07-29T05:50:05.387Z,28.76
2022-07-29T05:51:38.746Z,28.87
2022-07-29T05:53:19.404Z,29.22
2022-07-29T05:54:53.774Z,29.35
2022-07-29T05:56:27.499Z,29.63
2022-07-29T05:58:00.789Z,29.92
2022-07-29T05:59:36.932Z,30.23
2022-07-29T06:01:10.271Z,30.57
2022-07-29T06:02:43.596Z,30.79
2022-07-29T06:04:17.180Z,31.11
2022-07-29T06:05:50.734Z,31.25
2022-07-29T06:07:24.045Z,31.33
2022-07-29T06:08:57.352Z,31.37
2022-07-29T06:10:30.733Z,31.35
2022-07-29T06:12:05.194Z,31.37
2022-07-29T06:13:38.398Z,31.48
2022-07-29T06:15:13.258Z,31.67
2022-07-29T06:16:46.895Z,31.95
2022-07-29T06:18:21.985Z,32.07
2022-07-29T06:19:55.250Z,32.16
2022-07-29T06:21:28.611Z,32.19
2022-07-29T06:23:01.981Z,32.16
2022-07-29T06:24:35.643Z,31.99
2022-07-29T06:26:09.877Z,31.95
2022-07-29T06:27:43.133Z,32.16
2022-07-29T06:29:16.331Z,32.10
2022-07-29T06:30:51.357Z,32.32
2022-07-29T06:32:27.381Z,32.33
2022-07-29T06:34:00.806Z,32.20
2022-07-29T06:35:38.947Z,32.35
2022-07-29T06:37:16.068Z,32.51
2022-07-29T06:38:51.305Z,31.85
2022-07-29T06:40:42.738Z,31.68
2022-07-29T06:42:16.440Z,31.85
2022-07-29T06:43:51.029Z,32.09
2022-07-29T06:45:27.682Z,32.42
2022-07-29T06:47:03.244Z,32.67
2022-07-29T06:48:38.353Z,32.85
2022-07-29T06:50:13.515Z,32.90
2022-07-29T06:51:46.757Z,33.17
2022-07-29T06:53:20.044Z,33.07
2022-07-29T06:54:53.580Z,32.82
2022-07-29T06:56:27.216Z,33.19
2022-07-29T06:57:59.386Z,33.39
2022-07-29T06:59:35.839Z,33.61
2022-07-29T07:01:09.863Z,33.68
2022-07-29T07:02:44.725Z,33.61
2022-07-29T07:04:18.559Z,33.77
2022-07-29T07:05:51.061Z,33.84
2022-07-29T07:07:24.326Z,33.96
2022-07-29T07:08:57.903Z,33.94
2022-07-29T07:10:31.222Z,33.90
2022-07-29T07:12:04.740Z,33.97
2022-07-29T07:13:38.117Z,34.03
2022-07-29T07:15:12.129Z,34.13
2022-07-29T07:16:45.515Z,34.22
2022-07-29T07:18:20.394Z,34.44
2022-07-29T07:19:53.925Z,34.44
2022-07-29T07:21:30.222Z,34.45
2022-07-29T07:23:04.310Z,34.41
2022-07-29T07:24:37.585Z,34.60
2022-07-29T07:26:11.870Z,34.67
2022-07-29T07:27:45.474Z,34.80
2022-07-29T07:29:18.704Z,34.94
2022-07-29T07:30:51.993Z,35.08
2022-07-29T07:32:25.401Z,35.01
2022-07-29T07:34:00.418Z,34.67
2022-07-29T07:35:33.999Z,34.47
2022-07-29T07:37:07.827Z,34.26
2022-07-29T07:38:41.311Z,34.02
2022-07-29T07:40:18.528Z,33.96
2022-07-29T07:41:52.252Z,34.07
2022-07-29T07:43:25.513Z,34.16
2022-07-29T07:45:13.122Z,34.34
2022-07-29T07:46:47.442Z,34.60
2022-07-29T07:48:20.819Z,34.71
2022-07-29T07:49:55.567Z,35.00
2022-07-29T07:51:28.821Z,35.17
2022-07-29T07:53:03.211Z,35.57
2022-07-29T07:54:37.048Z,35.61
2022-07-29T07:56:12.258Z,35.88
2022-07-29T07:57:46.403Z,35.87
2022-07-29T07:59:19.926Z,35.81
2022-07-29T08:00:53.258Z,35.89
2022-07-29T08:02:26.763Z,36.14
2022-07-29T08:04:00.239Z,36.17
2022-07-29T08:05:35.158Z,36.35
2022-07-29T08:07:12.713Z,36.44
2022-07-29T08:08:48.790Z,36.64
2022-07-29T08:10:36.651Z,36.73
2022-07-29T08:12:10.315Z,36.71
2022-07-29T08:13:44.173Z,36.64
2022-07-29T08:15:17.469Z,36.86
2022-07-29T08:16:51.096Z,36.98
2022-07-29T08:18:24.330Z,37.34
2022-07-29T08:19:57.654Z,37.57
2022-07-29T08:21:32.311Z,37.26
2022-07-29T08:23:07.202Z,36.97
2022-07-29T08:24:45.347Z,37.17
2022-07-29T08:26:18.900Z,37.13
2022-07-29T08:27:52.221Z,37.22
2022-07-29T08:29:25.558Z,36.96
2022-07-29T08:30:59.140Z,37.25
2022-07-29T08:32:52.467Z,36.88
2022-07-29T08:34:27.863Z,37.18
2022-07-29T08:36:01.884Z,36.92
2022-07-29T08:37:36.591Z,37.34
2022-07-29T08:39:10.301Z,37.51
2022-07-29T08:40:43.611Z,37.39
2022-07-29T08:42:18.216Z,37.38
2022-07-29T08:43:53.132Z,37.54
2022-07-29T08:45:27.628Z,37.88
2022-07-29T08:47:01.210Z,38.11
2022-07-29T08:48:35.891Z,38.19
2022-07-29T08:50:10.536Z,38.17
2022-07-29T08:51:49.212Z,38.28
2022-07-29T08:53:28.303Z,38.42
2022-07-29T08:55:02.243Z,38.52
2022-07-29T08:56:36.357Z,38.77
2022-07-29T08:58:10.927Z,38.76
2022-07-29T08:59:47.287Z,38.70
2022-07-29T09:01:36.580Z,38.45
2022-07-29T09:03:19.507Z,38.18
2022-07-29T09:04:53.018Z,38.18
2022-07-29T09:06:28.974Z,38.13
2022-07-29T09:08:03.239Z,38.23
2022-07-29T09:09:40.550Z,38.47
2022-07-29T09:11:14.680Z,38.49
2022-07-29T09:12:49.824Z,38.26
2022-07-29T09:14:23.184Z,38.42
2022-07-29T09:15:56.578Z,38.45
2022-07-29T09:17:51.726Z,38.70
2022-07-29T09:19:27.996Z,38.84
2022-07-29T09:21:18.562Z,38.49
2022-07-29T09:22:54.195Z,38.60
2022-07-29T09:24:30.112Z,38.72
2022-07-29T09:26:08.031Z,38.44
2022-07-29T09:27:41.463Z,38.19
2022-07-29T09:29:16.667Z,38.08
2022-07-29T09:30:54.353Z,38.16
2022-07-29T09:32:29.135Z,38.19
2022-07-29T09:34:01.528Z,38.23
2022-07-29T09:35:34.859Z,38.33
2022-07-29T09:37:08.265Z,36.90
2022-07-29T09:38:42.103Z,37.13
2022-07-29T09:40:17.991Z,37.56
2022-07-29T09:41:54.333Z,37.93
2022-07-29T09:43:27.860Z,38.17
2022-07-29T09:45:01.384Z,38.18
2022-07-29T09:46:34.661Z,38.26
2022-07-29T09:48:16.988Z,38.17
2022-07-29T09:49:55.592Z,38.22
2022-07-29T09:51:38.301Z,38.41
2022-07-29T09:53:12.787Z,38.32
2022-07-29T09:54:47.106Z,38.36
2022-07-29T09:56:20.430Z,38.45
2022-07-29T09:57:55.463Z,38.47
2022-07-29T09:59:29.333Z,38.62
2022-07-29T10:01:02.748Z,38.80
2022-07-29T10:02:38.185Z,38.56
2022-07-29T10:04:11.826Z,38.47
2022-07-29T10:05:46.113Z,38.55
2022-07-29T10:07:19.412Z,38.51
2022-07-29T10:08:53.479Z,38.29
2022-07-29T10:10:28.287Z,38.10
2022-07-29T10:12:10.285Z,37.89
2022-07-29T10:13:46.439Z,37.31
2022-07-29T10:15:20.300Z,37.20
2022-07-29T10:16:53.682Z,36.73
2022-07-29T10:18:27.032Z,36.25
2022-07-29T10:20:00.359Z,36.22
2022-07-29T10:21:36.630Z,36.05
2022-07-29T10:23:11.225Z,35.94
2022-07-29T10:24:44.583Z,36.17
2022-07-29T10:26:18.646Z,36.28
2022-07-29T10:27:53.354Z,36.36
2022-07-29T10:29:32.378Z,36.41
2022-07-29T10:31:08.714Z,36.46
2022-07-29T10:33:08.862Z,36.39
2022-07-29T10:35:00.039Z,36.22
2022-07-29T10:36:47.709Z,36.21
2022-07-29T10:38:45.790Z,36.16
2022-07-29T10:40:45.898Z,35.89
2022-07-29T10:42:33.949Z,35.98
2022-07-29T10:44:17.106Z,36.15
2022-07-29T10:46:02.219Z,36.28
2022-07-29T10:47:35.749Z,36.34
2022-07-29T10:49:11.898Z,36.34
2022-07-29T10:50:56.410Z,36.29
2022-07-29T10:53:08.822Z,36.04
2022-07-29T10:54:48.878Z,35.94
2022-07-29T10:56:30.124Z,35.95
2022-07-29T10:58:18.236Z,35.95
2022-07-29T11:00:14.305Z,35.94
2022-07-29T11:05:59.833Z,35.91
2022-07-29T11:07:46.096Z,36.01
2022-07-29T11:09:25.855Z,36.06
2022-07-29T11:11:43.757Z,35.95
2022-07-29T11:13:57.417Z,35.79
2022-07-29T11:15:31.734Z,35.87
2022-07-29T11:17:09.185Z,35.97
2022-07-29T11:19:15.887Z,36.05
2022-07-29T11:21:00.847Z,35.90
2022-07-29T11:22:35.246Z,35.84
2022-07-29T11:24:14.895Z,35.85
2022-07-29T11:26:23.004Z,35.96
2022-07-29T11:28:11.131Z,35.95
2022-07-29T11:29:55.602Z,35.86
2022-07-29T11:31:38.191Z,35.78
2022-07-29T11:33:54.446Z,35.67
2022-07-29T11:37:28.081Z,35.83
2022-07-29T11:39:36.695Z,35.96
2022-07-29T11:41:27.551Z,36.01
2022-07-29T11:43:01.325Z,35.97
2022-07-29T11:44:59.135Z,35.89
2022-07-29T11:46:50.161Z,35.97
2022-07-29T11:48:32.183Z,36.01
2022-07-29T11:50:10.258Z,36.10
2022-07-29T11:51:48.542Z,36.13
2022-07-29T11:53:22.959Z,36.13
2022-07-29T11:55:00.825Z,36.11
2022-07-29T11:56:47.625Z,35.96
2022-07-29T12:00:25.889Z,36.13
2022-07-29T12:04:06.811Z,36.14
2022-07-29T12:05:48.304Z,36.12
2022-07-29T12:07:01.567Z,35.77
2022-07-29T12:07:34.987Z,36.12
2022-07-29T12:09:11.334Z,36.10
2022-07-29T12:10:49.108Z,36.03
2022-07-29T12:12:22.878Z,36.00
2022-07-29T12:13:58.161Z,36.04
2022-07-29T12:15:46.286Z,36.09
2022-07-29T12:17:38.569Z,36.08
2022-07-29T12:19:13.372Z,36.09
2022-07-29T12:20:47.723Z,36.16
2022-07-29T12:22:28.200Z,36.00
2022-07-29T12:24:08.786Z,36.07
2022-07-29T12:25:45.541Z,36.15
2022-07-29T12:27:29.382Z,36.18
2022-07-29T12:29:03.858Z,36.21
2022-07-29T12:30:42.542Z,36.21
2022-07-29T12:32:19.839Z,36.26
2022-07-29T12:33:55.644Z,36.25
2022-07-29T12:35:33.336Z,36.32
2022-07-29T12:37:10.604Z,36.35
2022-07-29T12:38:44.299Z,36.43
2022-07-29T12:40:19.185Z,36.30
2022-07-29T12:41:52.576Z,36.17
2022-07-29T12:43:37.655Z,36.22
2022-07-29T12:45:11.485Z,36.24
2022-07-29T12:46:47.647Z,36.33
2022-07-29T12:48:35.424Z,36.11
2022-07-29T12:50:15.611Z,36.09
2022-07-29T12:51:50.494Z,36.15
2022-07-29T12:53:23.888Z,36.24
2022-07-29T12:54:57.502Z,36.27
2022-07-29T12:56:42.862Z,36.29
2022-07-29T12:58:29.319Z,36.27
2022-07-29T13:00:06.581Z,36.30
2022-07-29T13:01:39.935Z,36.24
2022-07-29T13:03:13.208Z,36.27
2022-07-29T13:04:58.177Z,36.22
2022-07-29T13:06:46.177Z,36.24
2022-07-29T13:08:26.327Z,36.29
2022-07-29T13:10:13.990Z,36.27
2022-07-29T13:11:48.984Z,36.30
2022-07-29T13:13:22.310Z,36.25
2022-07-29T13:14:55.567Z,36.33
2022-07-29T13:16:29.443Z,36.36
2022-07-29T13:18:03.114Z,36.33
2022-07-29T13:19:41.272Z,36.35
2022-07-29T13:21:16.221Z,36.18
2022-07-29T13:22:50.541Z,36.18
2022-07-29T13:24:25.348Z,36.19
2022-07-29T13:26:07.724Z,36.15
2022-07-29T13:27:42.282Z,36.18
2022-07-29T13:29:15.754Z,36.27
2022-07-29T13:30:49.450Z,36.31
2022-07-29T13:32:28.436Z,36.36
2022-07-29T13:34:02.363Z,36.37
2022-07-29T13:35:40.120Z,36.36
2022-07-29T13:37:12.686Z,36.37
2022-07-29T13:38:46.152Z,36.38
2022-07-29T13:40:21.445Z,36.37
2022-07-29T13:41:55.199Z,36.24
2022-07-29T13:43:29.804Z,36.22
2022-07-29T13:45:03.477Z,36.18
2022-07-29T13:46:36.822Z,36.21
2022-07-29T13:48:13.586Z,36.22
2022-07-29T13:49:47.514Z,36.32
2022-07-29T13:51:20.907Z,36.33
2022-07-29T13:52:54.259Z,36.28
2022-07-29T13:54:27.724Z,36.27
2022-07-29T13:56:02.461Z,36.30
2022-07-29T13:57:36.526Z,36.29
2022-07-29T13:59:09.938Z,36.31
2022-07-29T14:00:47.650Z,36.26
2022-07-29T14:02:20.999Z,36.21
2022-07-29T14:03:54.389Z,36.24
2022-07-29T14:05:29.496Z,36.27
2022-07-29T14:07:03.799Z,36.38
2022-07-29T14:08:37.438Z,36.47
2022-07-29T14:10:11.352Z,36.47
2022-07-29T14:11:46.851Z,36.45
2022-07-29T14:13:25.391Z,36.45
2022-07-29T14:14:59.714Z,36.38
2022-07-29T14:16:33.124Z,36.26
2022-07-29T14:18:06.516Z,36.18
2022-07-29T14:19:40.176Z,36.19
2022-07-29T14:21:14.238Z,36.18
2022-07-29T14:22:47.507Z,36.22
2022-07-29T14:24:22.924Z,36.16
2022-07-29T14:25:57.212Z,36.07
2022-07-29T14:27:37.940Z,35.97
2022-07-29T14:29:11.848Z,35.89
2022-07-29T14:30:45.354Z,35.88
2022-07-29T14:32:18.753Z,35.85
2022-07-29T14:33:52.589Z,35.88
2022-07-29T14:35:26.056Z,35.73
2022-07-29T14:36:59.863Z,35.73
2022-07-29T14:38:33.129Z,35.68
2022-07-29T14:40:08.015Z,35.64
2022-07-29T14:41:41.340Z,35.61
2022-07-29T14:43:16.032Z,35.64
2022-07-29T14:44:50.344Z,35.71
2022-07-29T14:46:24.115Z,35.74
2022-07-29T14:47:57.651Z,35.75
2022-07-29T14:49:31.585Z,35.84
2022-07-29T14:51:05.233Z,35.82
2022-07-29T14:52:38.916Z,35.91
2022-07-29T14:54:12.302Z,35.93
2022-07-29T14:55:46.703Z,35.94
2022-07-29T14:57:20.873Z,36.00
2022-07-29T14:58:56.505Z,36.04
2022-07-29T15:00:33.245Z,36.07
2022-07-29T15:02:06.592Z,36.07
2022-07-29T15:03:40.064Z,36.06
2022-07-29T15:05:13.752Z,36.11
2022-07-29T15:06:47.108Z,36.07
2022-07-29T15:08:20.534Z,36.10
2022-07-29T15:09:58.018Z,36.05
2022-07-29T15:11:33.458Z,36.04
2022-07-29T15:13:11.542Z,36.03
2022-07-29T15:14:46.133Z,36.03
2022-07-29T15:16:19.610Z,35.96
2022-07-29T15:17:53.284Z,35.90
2022-07-29T15:19:26.734Z,35.79
2022-07-29T15:21:01.476Z,35.84
2022-07-29T15:22:34.806Z,35.87
2022-07-29T15:24:09.563Z,35.87
2022-07-29T15:25:42.745Z,35.86
2022-07-29T15:27:16.123Z,35.75
2022-07-29T15:28:49.394Z,35.77
2022-07-29T15:30:32.435Z,35.83
2022-07-29T15:32:08.070Z,35.81
2022-07-29T15:33:41.818Z,35.81
2022-07-29T15:35:15.236Z,35.83
2022-07-29T15:36:52.410Z,35.83
2022-07-29T15:38:28.904Z,35.75
2022-07-29T15:40:02.634Z,35.72
2022-07-29T15:41:36.237Z,35.70
2022-07-29T15:43:10.087Z,35.65
2022-07-29T15:44:43.314Z,35.65
2022-07-29T15:46:37.465Z,35.61
2022-07-29T15:48:14.853Z,35.62
2022-07-29T15:49:49.524Z,35.53
2022-07-29T15:51:22.911Z,35.57
2022-07-29T15:52:56.178Z,35.56
2022-07-29T15:54:30.176Z,35.57
2022-07-29T15:56:03.501Z,35.49
2022-07-29T15:57:36.896Z,35.61
2022-07-29T15:59:10.168Z,35.63
2022-07-29T16:00:55.603Z,35.55
2022-07-29T16:02:30.305Z,35.45
2022-07-29T16:04:03.665Z,35.40
2022-07-29T16:05:37.265Z,35.36
2022-07-29T16:07:10.981Z,35.24
2022-07-29T16:08:44.338Z,35.24
2022-07-29T16:10:17.567Z,35.18
2022-07-29T16:11:51.086Z,35.10
2022-07-29T16:13:24.629Z,35.07
2022-07-29T16:14:58.562Z,35.04
2022-07-29T16:16:31.997Z,35.00
2022-07-29T16:18:08.117Z,34.94
2022-07-29T16:19:43.194Z,34.88
2022-07-29T16:21:16.484Z,34.85
2022-07-29T16:22:49.716Z,34.79
2022-07-29T16:24:24.048Z,34.77
2022-07-29T16:25:59.968Z,34.71
2022-07-29T16:27:37.687Z,34.70
2022-07-29T16:29:11.327Z,34.66
2022-07-29T16:30:44.706Z,34.60
2022-07-29T16:32:22.321Z,34.51
2022-07-29T16:33:57.349Z,34.45
2022-07-29T16:35:39.113Z,34.38
2022-07-29T16:37:13.361Z,34.34
2022-07-29T16:38:47.599Z,34.28
2022-07-29T16:40:20.978Z,34.20
2022-07-29T16:41:59.547Z,34.16
2022-07-29T16:43:33.683Z,34.09
2022-07-29T16:45:07.869Z,34.05
2022-07-29T16:46:41.511Z,33.96
2022-07-29T16:48:15.208Z,33.94
2022-07-29T16:49:52.995Z,33.89
2022-07-29T16:51:26.560Z,33.82
2022-07-29T16:53:00.445Z,33.70
2022-07-29T16:54:33.618Z,33.74
2022-07-29T16:56:07.427Z,33.66
2022-07-29T16:57:45.569Z,33.57
2022-07-29T16:59:18.913Z,33.48
2022-07-29T17:00:52.486Z,33.48
2022-07-29T17:02:25.842Z,33.42
2022-07-29T17:04:08.236Z,33.38
2022-07-29T17:05:52.258Z,33.29
2022-07-29T17:07:27.520Z,33.26
2022-07-29T17:09:01.246Z,33.18
2022-07-29T17:10:34.875Z,33.10
2022-07-29T17:12:08.545Z,33.00
2022-07-29T17:13:41.840Z,32.96
2022-07-29T17:15:16.792Z,32.89
2022-07-29T17:16:51.644Z,32.81
2022-07-29T17:18:34.123Z,32.75
2022-07-29T17:20:09.531Z,32.70
2022-07-29T17:21:49.195Z,32.64
2022-07-29T17:23:22.661Z,32.54
2022-07-29T17:24:55.950Z,32.49
2022-07-29T17:26:29.281Z,32.45
2022-07-29T17:28:02.683Z,32.43
2022-07-29T17:29:35.320Z,32.37
2022-07-29T17:31:08.840Z,32.32
2022-07-29T17:32:42.132Z,32.25
2022-07-29T17:34:15.776Z,32.20
2022-07-29T17:36:07.305Z,32.13
2022-07-29T17:37:42.021Z,32.02
2022-07-29T17:39:15.226Z,31.95
2022-07-29T17:40:48.486Z,31.92
2022-07-29T17:42:21.891Z,31.87
2022-07-29T17:43:55.918Z,31.80
2022-07-29T17:45:49.589Z,31.76
2022-07-29T17:47:23.026Z,31.71
2022-07-29T17:48:57.911Z,31.67
2022-07-29T17:50:31.163Z,31.55
2022-07-29T17:52:04.868Z,31.44
2022-07-29T17:53:39.942Z,31.43
2022-07-29T17:55:13.393Z,31.38
2022-07-29T17:56:46.658Z,31.22
2022-07-29T17:58:20.172Z,31.13
2022-07-29T17:59:53.735Z,31.04
2022-07-29T18:01:26.946Z,30.92
2022-07-29T18:03:00.243Z,30.87
2022-07-29T18:04:33.857Z,30.79
2022-07-29T18:06:07.517Z,30.71
2022-07-29T18:07:41.073Z,30.64
2022-07-29T18:09:15.990Z,30.55
2022-07-29T18:10:49.399Z,30.47
2022-07-29T18:12:23.025Z,30.45
2022-07-29T18:13:56.287Z,30.40
2022-07-29T18:15:29.606Z,30.44
2022-07-29T18:17:02.905Z,30.43
2022-07-29T18:18:36.846Z,30.43
2022-07-29T18:20:11.571Z,30.37
2022-07-29T18:21:53.879Z,30.26
2022-07-29T18:23:29.052Z,30.22
2022-07-29T18:25:03.776Z,30.16
2022-07-29T18:26:37.040Z,30.13
2022-07-29T18:28:10.375Z,30.02
2022-07-29T18:29:43.668Z,29.96
2022-07-29T18:31:24.817Z,29.93
2022-07-29T18:33:20.293Z,29.84
2022-07-29T18:34:51.551Z,29.72
2022-07-29T18:36:24.875Z,29.74
2022-07-29T18:38:01.498Z,29.72
2022-07-29T18:39:36.121Z,29.69
2022-07-29T18:41:11.512Z,29.69
2022-07-29T18:42:44.735Z,29.70
2022-07-29T18:44:18.428Z,29.65
2022-07-29T18:45:51.738Z,29.69
2022-07-29T18:47:32.238Z,29.58
2022-07-29T18:49:05.868Z,29.58
2022-07-29T18:50:39.220Z,29.53
2022-07-29T18:52:12.525Z,29.51
2022-07-29T18:53:45.825Z,29.51
2022-07-29T18:55:19.156Z,29.36
2022-07-29T18:56:53.773Z,29.41
2022-07-29T18:58:27.207Z,29.35
2022-07-29T19:00:00.580Z,29.33
2022-07-29T19:01:34.033Z,29.31
2022-07-29T19:03:07.566Z,29.27
2022-07-29T19:04:41.379Z,29.26
2022-07-29T19:06:14.991Z,29.19
2022-07-29T19:07:48.268Z,29.23
2022-07-29T19:09:21.992Z,29.20
2022-07-29T19:10:55.264Z,29.19
2022-07-29T19:12:30.355Z,29.18
2022-07-29T19:14:03.994Z,29.16
2022-07-29T19:15:37.606Z,29.13
2022-07-29T19:17:10.949Z,29.10
2022-07-29T19:18:44.729Z,29.11
2022-07-29T19:20:18.112Z,29.11
2022-07-29T19:21:51.668Z,29.08
2022-07-29T19:23:25.663Z,29.07
2022-07-29T19:24:59.023Z,29.10
2022-07-29T19:26:33.404Z,29.08
2022-07-29T19:28:08.662Z,29.07
2022-07-29T19:29:42.020Z,29.06
2022-07-29T19:31:15.329Z,29.04
2022-07-29T19:32:48.511Z,29.01
2022-07-29T19:34:22.926Z,28.98
2022-07-29T19:35:56.343Z,28.95
2022-07-29T19:37:29.536Z,28.91
2022-07-29T19:39:04.531Z,28.87
2022-07-29T19:40:39.172Z,28.83
2022-07-29T19:42:12.452Z,28.81
2022-07-29T19:43:51.272Z,28.78
2022-07-29T19:45:26.913Z,28.77
2022-07-29T19:47:02.147Z,28.73
2022-07-29T19:48:35.485Z,28.71
2022-07-29T19:50:10.345Z,28.72
2022-07-29T19:51:43.679Z,28.69
2022-07-29T19:53:17.090Z,28.72
2022-07-29T19:54:50.387Z,28.73
2022-07-29T19:56:26.709Z,28.73
2022-07-29T19:58:03.380Z,28.73
2022-07-29T19:59:40.478Z,28.72
2022-07-29T20:01:13.902Z,28.72
2022-07-29T20:02:47.397Z,28.64
2022-07-29T20:04:20.748Z,28.70
2022-07-29T20:05:54.334Z,28.66
2022-07-29T20:07:27.566Z,28.69
2022-07-29T20:09:00.815Z,28.69
2022-07-29T20:10:34.564Z,28.66
2022-07-29T20:12:09.105Z,28.66
2022-07-29T20:13:42.390Z,28.64
2022-07-29T20:15:17.625Z,28.61
2022-07-29T20:16:50.983Z,28.57
2022-07-29T20:18:24.320Z,28.57
2022-07-29T20:19:59.989Z,28.53
2022-07-29T20:21:34.053Z,28.52
2022-07-29T20:23:07.555Z,28.47
2022-07-29T20:24:40.969Z,28.43
2022-07-29T20:26:16.279Z,28.40
2022-07-29T20:27:52.435Z,28.34
2022-07-29T20:29:25.870Z,28.28
2022-07-29T20:31:00.566Z,28.23
2022-07-29T20:32:33.890Z,28.23
2022-07-29T20:34:07.191Z,28.21
2022-07-29T20:35:41.112Z,28.19
2022-07-29T20:37:16.386Z,28.20
2022-07-29T20:38:50.779Z,28.23
2022-07-29T20:40:24.536Z,28.27
2022-07-29T20:41:58.113Z,28.28
2022-07-29T20:43:31.617Z,28.29
2022-07-29T20:45:12.540Z,28.27
2022-07-29T20:46:48.919Z,28.25
2022-07-29T20:48:22.329Z,28.18